Time;durP1;ratioP1;P1;durP2;ratioP2;P2;SDS_P1;SDS_P2;PMS_P1;PMS_P2;Temp;Humidity;BMP_temperature;BMP_pressure;BME280_temperature;BME280_humidity;BME280_pressure;Samples;Min_cycle;Max_cycle;Signal;HPM_P1;HPM_P2
2023/06/19 00:02:13;;;;;;;0.52;0.40;;;;;;;24.54;46.64;100298.16;5226789;28;20041;-79
2023/06/19 00:05:04;;;;;;;1.20;1.10;;;;;;;24.46;47.32;100295.34;5237069;28;20024;-81
2023/06/19 00:07:54;;;;;;;1.35;0.85;;;;;;;24.52;46.73;100292.91;5226206;28;20547;-79
2023/06/19 00:10:48;;;;;;;0.77;0.60;;;;;;;24.54;46.59;100294.63;5241208;28;20052;-82
2023/06/19 00:13:39;;;;;;;0.77;0.55;;;;;;;24.39;47.96;100291.53;5241335;28;20108;-79
2023/06/19 00:16:31;;;;;;;0.70;0.70;;;;;;;24.48;46.95;100299.56;5239177;28;20539;-79
2023/06/19 00:19:22;;;;;;;0.50;0.50;;;;;;;24.46;46.84;100301.53;5240624;28;20036;-80
2023/06/19 00:22:13;;;;;;;0.35;0.35;;;;;;;24.45;47.01;100290.97;5226211;28;20044;-80
2023/06/19 00:25:04;;;;;;;0.30;0.30;;;;;;;24.42;47.65;100300.13;5236572;28;20040;-82
2023/06/19 00:27:55;;;;;;;0.57;0.50;;;;;;;24.40;47.54;100299.44;5228071;28;20027;-79
2023/06/19 00:30:46;;;;;;;0.80;0.68;;;;;;;24.37;47.38;100302.41;5225060;28;20047;-80
2023/06/19 00:33:37;;;;;;;0.60;0.60;;;;;;;24.25;48.96;100315.09;5230263;28;20028;-80
2023/06/19 00:36:28;;;;;;;0.30;0.30;;;;;;;24.27;47.79;100309.59;5238276;28;20049;-79
2023/06/19 00:39:19;;;;;;;0.57;0.57;;;;;;;24.20;47.77;100317.38;5222873;28;20021;-79
2023/06/19 00:42:09;;;;;;;0.43;0.43;;;;;;;24.19;47.30;100312.97;5228078;28;20032;-80
2023/06/19 00:45:00;;;;;;;0.57;0.43;;;;;;;24.17;47.57;100313.09;5210678;28;20031;-80
2023/06/19 00:47:53;;;;;;;0.50;0.50;;;;;;;24.10;48.18;100321.84;5221713;28;20024;-79
2023/06/19 00:50:44;;;;;;;2.10;0.57;;;;;;;24.11;47.63;100320.88;5229187;28;20737;-80
2023/06/19 00:53:35;;;;;;;0.30;0.30;;;;;;;24.09;47.57;100329.03;5235915;28;20031;-80
2023/06/19 00:56:26;;;;;;;0.50;0.50;;;;;;;24.05;48.00;100333.00;5240104;28;20501;-80
2023/06/19 00:59:19;;;;;;;0.75;0.75;;;;;;;24.06;48.20;100334.69;5240240;28;20064;-79
2023/06/19 01:02:10;;;;;;;0.40;0.40;;;;;;;24.01;48.31;100334.25;5235061;28;20040;-79
2023/06/19 01:05:01;;;;;;;0.50;0.50;;;;;;;24.00;48.11;100324.53;5227621;28;20028;-80
2023/06/19 01:08:00;;;;;;;0.35;0.35;;;;;;;23.98;48.35;100323.81;5235859;28;20029;-80
2023/06/19 01:10:57;;;;;;;0.77;0.77;;;;;;;23.93;47.99;100323.34;5234763;28;20052;-80
2023/06/19 01:13:55;;;;;;;0.50;0.50;;;;;;;23.92;48.04;100316.31;5225176;28;20033;-80
2023/06/19 01:16:47;;;;;;;1.02;0.60;;;;;;;23.91;48.28;100319.97;5216495;28;20044;-80
2023/06/19 01:19:38;;;;;;;0.30;0.30;;;;;;;23.84;48.20;100333.91;5238811;28;20040;-80
2023/06/19 01:22:32;;;;;;;1.73;0.65;;;;;;;23.82;47.97;100327.84;5231556;28;20033;-80
2023/06/19 01:25:24;;;;;;;0.68;0.68;;;;;;;23.80;48.28;100327.13;5240347;28;20048;-79
2023/06/19 01:28:15;;;;;;;11.23;1.45;;;;;;;23.75;48.73;100332.06;5239106;28;20497;-79
2023/06/19 01:31:28;;;;;;;0.40;0.40;;;;;;;23.73;49.66;100323.31;5220484;28;20143;-82
2023/06/19 01:34:20;;;;;;;0.40;0.40;;;;;;;23.73;48.82;100326.81;5240039;28;20040;-80
2023/06/19 01:37:12;;;;;;;1.10;0.57;;;;;;;23.72;48.86;100326.97;5232481;28;20037;-80
2023/06/19 01:40:06;;;;;;;0.30;0.30;;;;;;;23.72;48.91;100329.66;5223876;28;20036;-80
2023/06/19 01:43:02;;;;;;;0.20;0.20;;;;;;;23.71;49.38;100338.66;5201905;28;20029;-79
2023/06/19 01:45:53;;;;;;;0.68;0.57;;;;;;;23.66;50.76;100336.38;5229245;28;20036;-81
2023/06/19 01:48:44;;;;;;;0.40;0.40;;;;;;;23.61;51.23;100340.47;5232799;28;20025;-81
2023/06/19 01:51:35;;;;;;;0.60;0.60;;;;;;;23.61;51.30;100345.81;5231876;28;20031;-79
2023/06/19 01:54:26;;;;;;;3.60;1.00;;;;;;;23.55;51.27;100341.88;5236141;28;20111;-80
2023/06/19 01:57:18;;;;;;;1.10;0.70;;;;;;;23.47;52.45;100350.56;5217776;28;20136;-79
2023/06/19 02:00:10;;;;;;;0.75;0.73;;;;;;;23.53;50.77;100352.69;5237962;28;20044;-81
2023/06/19 02:03:01;;;;;;;0.43;0.43;;;;;;;23.50;51.76;100362.81;5227773;28;20029;-82
2023/06/19 02:05:55;;;;;;;0.60;0.60;;;;;;;23.35;53.14;100367.69;5239849;28;20037;-80
2023/06/19 02:08:46;;;;;;;1.05;0.77;;;;;;;23.26;52.99;100378.19;5240909;28;20051;-79
2023/06/19 02:11:37;;;;;;;0.40;0.40;;;;;;;23.34;52.62;100374.03;5223356;28;20054;-80
2023/06/19 02:14:27;;;;;;;1.45;0.90;;;;;;;23.11;52.88;100377.69;5221742;28;20051;-79
2023/06/19 02:17:18;;;;;;;0.40;0.40;;;;;;;23.14;52.65;100384.59;5220473;28;20451;-79
2023/06/19 02:20:11;;;;;;;0.40;0.40;;;;;;;23.14;52.16;100389.94;5235967;28;20075;-79
2023/06/19 02:23:02;;;;;;;0.32;0.32;;;;;;;23.08;52.66;100383.28;5233072;28;20033;-80
2023/06/19 02:25:52;;;;;;;0.50;0.50;;;;;;;23.16;51.41;100388.00;5223048;28;20047;-79
2023/06/19 02:28:43;;;;;;;0.95;0.80;;;;;;;23.02;52.50;100394.53;5231572;28;20020;-80
2023/06/19 02:31:34;;;;;;;0.95;0.95;;;;;;;23.04;52.14;100391.69;5236406;28;20047;-79
2023/06/19 02:34:25;;;;;;;0.50;0.50;;;;;;;23.06;51.58;100395.94;5239060;28;20032;-78
2023/06/19 02:37:16;;;;;;;0.80;0.80;;;;;;;22.93;52.88;100401.47;5232906;28;20033;-77
2023/06/19 02:40:10;;;;;;;1.65;0.57;;;;;;;22.97;52.28;100409.25;5239021;28;20055;-78
2023/06/19 02:43:01;;;;;;;0.70;0.68;;;;;;;22.87;52.57;100414.53;5246299;28;20032;-80
2023/06/19 02:45:51;;;;;;;0.77;0.77;;;;;;;22.73;53.82;100426.41;5238641;28;20040;-80
2023/06/19 02:48:42;;;;;;;0.30;0.30;;;;;;;22.54;54.59;100424.41;5229835;28;20024;-80
2023/06/19 02:51:33;;;;;;;0.40;0.40;;;;;;;22.48;55.67;100417.72;5241657;28;20039;-80
2023/06/19 02:54:24;;;;;;;2.78;1.70;;;;;;;22.32;56.58;100431.47;5228231;28;20696;-79
2023/06/19 02:57:15;;;;;;;1.25;1.15;;;;;;;22.33;56.43;100434.03;5245196;28;20044;-81
2023/06/19 03:00:06;;;;;;;0.50;0.50;;;;;;;22.37;56.74;100431.09;5231126;28;20330;-80
2023/06/19 03:02:57;;;;;;;0.95;0.77;;;;;;;22.13;57.51;100441.00;5240593;28;20037;-80
2023/06/19 03:05:48;;;;;;;0.40;0.40;;;;;;;22.17;57.60;100438.91;5228656;28;20075;-81
2023/06/19 03:08:39;;;;;;;0.50;0.43;;;;;;;22.13;57.65;100445.47;5243980;28;20085;-80
2023/06/19 03:11:30;;;;;;;1.65;0.70;;;;;;;22.25;56.90;100460.53;5241658;28;20036;-80
2023/06/19 03:14:21;;;;;;;0.40;0.40;;;;;;;22.27;56.93;100452.38;5228222;28;20041;-81
2023/06/19 03:17:12;;;;;;;0.38;0.38;;;;;;;22.10;58.13;100451.06;5213496;28;20036;-81
2023/06/19 03:20:05;;;;;;;0.65;0.65;;;;;;;22.06;58.55;100460.28;5224136;28;20029;-82
2023/06/19 03:22:56;;;;;;;0.73;0.73;;;;;;;22.00;58.67;100451.81;5246799;28;20119;-81
2023/06/19 03:25:47;;;;;;;0.52;0.47;;;;;;;21.86;59.62;100462.72;5242929;28;20037;-83
2023/06/19 03:28:38;;;;;;;0.38;0.38;;;;;;;21.97;59.12;100468.06;5239326;28;20033;-81
2023/06/19 03:31:28;;;;;;;0.30;0.30;;;;;;;21.79;59.94;100469.50;5224794;28;20044;-81
2023/06/19 03:34:19;;;;;;;0.40;0.40;;;;;;;21.68;60.56;100478.38;5242994;28;20036;-80
2023/06/19 03:37:10;;;;;;;0.28;0.28;;;;;;;21.54;61.40;100474.94;5240186;28;20489;-81
2023/06/19 03:40:03;;;;;;;0.38;0.38;;;;;;;21.68;60.57;100481.91;5235216;28;20044;-81
2023/06/19 03:42:54;;;;;;;1.00;0.40;;;;;;;21.57;61.03;100486.34;5232261;28;20029;-79
2023/06/19 03:45:47;;;;;;;0.30;0.30;;;;;;;21.58;60.67;100491.59;5240979;28;20103;-81
2023/06/19 03:48:38;;;;;;;0.30;0.30;;;;;;;21.49;62.01;100500.28;5214978;28;20040;-81
2023/06/19 03:51:29;;;;;;;0.98;0.77;;;;;;;21.34;62.82;100497.81;5242060;28;20037;-80
2023/06/19 03:54:20;;;;;;;0.40;0.40;;;;;;;21.36;63.22;100511.88;5230966;28;20063;-80
2023/06/19 03:57:11;;;;;;;0.50;0.50;;;;;;;21.36;62.84;100509.19;5230404;28;20025;-80
2023/06/19 04:00:07;;;;;;;0.30;0.30;;;;;;;21.32;63.08;100515.75;5243476;28;20037;-80
2023/06/19 04:02:58;;;;;;;0.50;0.50;;;;;;;21.09;64.51;100524.63;5226629;28;20027;-81
2023/06/19 04:05:49;;;;;;;0.40;0.40;;;;;;;21.14;64.10;100519.81;5239285;28;20052;-80
2023/06/19 04:08:43;;;;;;;0.63;0.63;;;;;;;21.03;65.08;100525.94;5238808;28;20645;-80
2023/06/19 04:11:33;;;;;;;0.77;0.77;;;;;;;20.98;65.24;100528.94;5243093;28;20622;-81
2023/06/19 04:14:24;;;;;;;0.35;0.35;;;;;;;20.98;65.32;100533.44;5257097;28;20380;-81
2023/06/19 04:17:15;;;;;;;0.25;0.25;;;;;;;21.07;65.17;100538.94;5216726;28;20481;-79
2023/06/19 04:20:11;;;;;;;0.25;0.25;;;;;;;21.12;64.23;100540.41;5226078;28;20032;-80
2023/06/19 04:23:01;;;;;;;0.30;0.30;;;;;;;21.15;64.27;100542.84;5241141;28;20090;-79
2023/06/19 04:25:52;;;;;;;0.30;0.30;;;;;;;21.11;64.96;100538.72;5220860;28;20053;-81
2023/06/19 04:28:43;;;;;;;0.80;0.55;;;;;;;21.10;64.88;100542.34;5233674;28;20032;-80
2023/06/19 04:31:40;;;;;;;0.47;0.47;;;;;;;20.93;65.90;100544.44;5231690;28;20485;-82
2023/06/19 04:34:32;;;;;;;0.40;0.35;;;;;;;20.91;65.66;100544.53;5240106;28;20096;-81
2023/06/19 04:37:22;;;;;;;0.43;0.32;;;;;;;20.88;66.06;100549.25;5230170;28;20055;-80
2023/06/19 04:40:13;;;;;;;0.20;0.20;;;;;;;20.75;67.01;100557.28;5235463;28;20562;-81
2023/06/19 04:43:05;;;;;;;0.73;0.73;;;;;;;20.84;66.37;100561.13;5243304;28;20032;-81
2023/06/19 04:45:56;;;;;;;0.60;0.60;;;;;;;20.75;67.27;100562.63;5230380;28;20060;-79
2023/06/19 04:48:50;;;;;;;0.85;0.85;;;;;;;20.54;68.27;100557.00;5235654;28;20028;-80
2023/06/19 04:51:41;;;;;;;0.30;0.30;;;;;;;20.54;68.41;100554.34;5234882;28;20056;-79
2023/06/19 04:54:35;;;;;;;0.20;0.20;;;;;;;20.57;68.25;100563.00;5228625;28;20032;-80
2023/06/19 04:57:26;;;;;;;0.75;0.47;;;;;;;20.62;68.07;100554.63;5247155;28;20068;-80
2023/06/19 05:00:19;;;;;;;0.52;0.52;;;;;;;20.65;67.75;100554.44;5233531;28;20147;-79
2023/06/19 05:03:13;;;;;;;0.52;0.52;;;;;;;20.69;68.07;100549.72;5227121;28;20092;-79
2023/06/19 05:06:04;;;;;;;0.30;0.30;;;;;;;20.65;68.32;100548.25;5240302;28;20262;-79
2023/06/19 05:08:55;;;;;;;0.52;0.52;;;;;;;20.62;68.01;100548.47;5242102;28;20048;-80
2023/06/19 05:11:46;;;;;;;3.00;0.60;;;;;;;20.70;67.47;100551.44;5238723;28;20084;-80
2023/06/19 05:14:36;;;;;;;0.55;0.55;;;;;;;20.66;67.97;100548.13;5252186;28;20040;-80
2023/06/19 05:17:27;;;;;;;0.32;0.32;;;;;;;20.65;68.21;100548.25;5231929;28;20119;-79
2023/06/19 05:20:18;;;;;;;0.43;0.43;;;;;;;20.79;67.32;100555.25;5235746;28;20121;-80
2023/06/19 05:23:09;;;;;;;0.30;0.30;;;;;;;20.62;67.90;100554.63;5229633;28;20028;-79
2023/06/19 05:26:00;;;;;;;0.63;0.50;;;;;;;20.65;67.80;100559.75;5222959;28;20040;-79
2023/06/19 05:28:51;;;;;;;0.22;0.22;;;;;;;20.78;67.10;100565.09;5242055;28;20029;-80
2023/06/19 05:31:41;;;;;;;0.52;0.52;;;;;;;20.77;67.37;100565.22;5235885;28;20029;-79
2023/06/19 05:34:32;;;;;;;0.57;0.57;;;;;;;20.95;66.18;100563.84;5243244;28;20029;-79
2023/06/19 05:37:23;;;;;;;0.20;0.20;;;;;;;20.86;66.94;100573.38;5235377;28;20057;-80
2023/06/19 05:40:14;;;;;;;0.30;0.30;;;;;;;20.78;67.21;100577.56;5237786;28;20017;-79
2023/06/19 05:43:05;;;;;;;0.25;0.25;;;;;;;20.96;66.67;100586.88;5232154;28;20121;-78
2023/06/19 05:45:56;;;;;;;0.43;0.43;;;;;;;20.98;66.41;100589.47;5234021;28;20386;-80
2023/06/19 05:48:47;;;;;;;0.40;0.40;;;;;;;20.89;67.06;100593.63;5225246;28;20033;-80
2023/06/19 05:51:38;;;;;;;0.20;0.20;;;;;;;20.95;67.11;100601.16;5223257;28;20029;-79
2023/06/19 05:54:29;;;;;;;0.93;0.93;;;;;;;21.05;66.42;100588.88;5207324;28;20089;-80
2023/06/19 05:57:23;;;;;;;0.55;0.30;;;;;;;20.94;66.34;100602.16;5217957;28;20036;-80
2023/06/19 06:00:15;;;;;;;0.82;0.82;;;;;;;21.07;66.59;100602.13;5224085;28;20048;-79
2023/06/19 06:03:05;;;;;;;2.95;1.05;;;;;;;21.13;66.33;100600.78;5227714;28;20565;-80
2023/06/19 06:06:02;;;;;;;0.30;0.30;;;;;;;21.07;65.95;100596.78;5222731;28;20048;-79
2023/06/19 06:08:54;;;;;;;0.20;0.20;;;;;;;21.17;65.09;100613.78;5238135;28;20052;-80
2023/06/19 06:11:45;;;;;;;0.20;0.20;;;;;;;21.11;65.60;100603.59;5233414;28;20124;-79
2023/06/19 06:14:36;;;;;;;0.30;0.30;;;;;;;21.04;65.38;100600.50;5243539;28;20079;-79
2023/06/19 06:17:27;;;;;;;0.40;0.40;;;;;;;21.20;65.41;100607.38;5228731;28;20087;-79
2023/06/19 06:20:18;;;;;;;0.25;0.25;;;;;;;21.22;65.56;100610.78;5238919;28;20028;-79
2023/06/19 06:23:09;;;;;;;0.40;0.40;;;;;;;21.19;65.20;100611.03;5243541;28;20041;-78
2023/06/19 06:26:02;;;;;;;0.55;0.47;;;;;;;21.25;64.64;100610.56;5228885;28;20032;-80
2023/06/19 06:28:53;;;;;;;;;;;;;;;21.28;65.05;100620.16;5228448;28;20036;-80
2023/06/19 06:31:46;;;;;;;0.40;0.40;;;;;;;21.14;65.69;100613.16;5240094;28;19921;-80
2023/06/19 06:34:37;;;;;;;0.22;0.22;;;;;;;21.10;66.18;100625.03;5239715;28;20041;-80
2023/06/19 06:37:28;;;;;;;0.20;0.20;;;;;;;21.06;65.86;100621.75;5252529;28;20048;-80
2023/06/19 06:40:19;;;;;;;0.55;0.55;;;;;;;21.22;65.43;100619.66;5242937;28;20029;-81
2023/06/19 06:43:10;;;;;;;0.17;0.17;;;;;;;21.26;65.94;100630.09;5241666;28;20040;-79
2023/06/19 06:46:01;;;;;;;0.20;0.20;;;;;;;21.23;65.89;100637.38;5231030;28;20033;-80
2023/06/19 06:48:52;;;;;;;0.20;0.20;;;;;;;21.34;65.55;100633.91;5227553;28;20093;-80
2023/06/19 06:51:43;;;;;;;0.20;0.20;;;;;;;21.44;65.63;100655.41;5237446;28;20029;-80
2023/06/19 06:54:33;;;;;;;0.47;0.47;;;;;;;21.56;65.22;100660.81;5236717;28;20020;-80
2023/06/19 06:57:24;;;;;;;0.40;0.40;;;;;;;21.51;65.59;100669.16;5251693;28;20040;-80
2023/06/19 07:00:18;;;;;;;0.30;0.30;;;;;;;21.64;64.74;100675.31;5235073;28;20049;-79
2023/06/19 07:03:09;;;;;;;0.70;0.70;;;;;;;21.49;65.17;100679.09;5223597;28;20025;-81
2023/06/19 07:06:00;;;;;;;0.20;0.20;;;;;;;21.29;66.47;100678.75;5235301;28;20033;-80
2023/06/19 07:08:50;;;;;;;0.30;0.30;;;;;;;21.35;66.68;100690.78;5223097;28;20021;-79
2023/06/19 07:11:41;;;;;;;0.20;0.20;;;;;;;21.42;67.49;100691.19;5221105;28;20033;-81
2023/06/19 07:14:32;;;;;;;11.60;0.73;;;;;;;21.62;66.64;100698.59;5229330;28;20044;-80
2023/06/19 07:17:23;;;;;;;0.38;0.38;;;;;;;21.73;65.28;100699.63;5227026;28;20573;-81
2023/06/19 07:20:15;;;;;;;0.50;0.40;;;;;;;21.67;67.08;100699.13;5235524;28;20064;-80
2023/06/19 07:23:06;;;;;;;0.40;0.40;;;;;;;21.81;65.22;100691.91;5241795;28;20028;-80
2023/06/19 07:25:57;;;;;;;0.35;0.35;;;;;;;21.69;67.57;100699.84;5237403;28;20059;-78
2023/06/19 07:28:48;;;;;;;0.73;0.73;;;;;;;21.70;66.57;100704.22;5231489;28;20016;-78
2023/06/19 07:31:42;;;;;;;0.30;0.30;;;;;;;21.51;67.37;100699.38;5231685;28;20051;-79
2023/06/19 07:34:33;;;;;;;1.95;0.75;;;;;;;21.63;67.16;100691.47;5235502;28;20512;-80
2023/06/19 07:37:27;;;;;;;8.40;0.82;;;;;;;21.37;68.51;100689.69;5237296;28;20056;-79
2023/06/19 07:40:18;;;;;;;0.55;0.55;;;;;;;21.61;67.10;100694.22;5233052;28;20025;-79
2023/06/19 07:43:08;;;;;;;0.65;0.65;;;;;;;21.46;67.80;100693.53;5239365;28;20450;-78
2023/06/19 07:45:59;;;;;;;0.20;0.20;;;;;;;21.48;67.49;100696.06;5232553;28;20044;-78
2023/06/19 07:48:50;;;;;;;0.43;0.38;;;;;;;21.29;67.03;100692.09;5246355;28;20005;-79
2023/06/19 07:51:41;;;;;;;0.30;0.30;;;;;;;21.40;67.07;100688.66;5239692;28;20059;-78
2023/06/19 07:54:34;;;;;;;0.55;0.30;;;;;;;21.41;67.10;100695.66;5252214;28;20037;-78
2023/06/19 07:57:26;;;;;;;0.63;0.63;;;;;;;21.29;67.23;100693.91;5252150;28;20036;-79
2023/06/19 08:00:17;;;;;;;0.32;0.32;;;;;;;21.57;66.48;100690.06;5253212;28;20040;-79
2023/06/19 08:03:08;;;;;;;1.13;1.00;;;;;;;21.67;67.31;100695.59;5247341;28;20542;-78
2023/06/19 08:05:58;;;;;;;0.60;0.60;;;;;;;21.80;66.14;100693.72;5223150;28;20036;-79
2023/06/19 08:08:49;;;;;;;0.30;0.30;;;;;;;21.77;65.33;100690.44;5235841;28;20055;-80
2023/06/19 08:11:40;;;;;;;1.73;1.08;;;;;;;21.91;65.13;100690.25;5239647;28;20035;-78
2023/06/19 08:14:31;;;;;;;0.30;0.30;;;;;;;21.87;64.82;100686.09;5224463;28;20062;-80
2023/06/19 08:17:21;;;;;;;0.30;0.30;;;;;;;21.81;64.43;100686.56;5232044;28;20709;-79
2023/06/19 08:20:12;;;;;;;0.40;0.40;;;;;;;21.98;63.09;100685.28;5239312;28;20178;-77
2023/06/19 08:23:03;;;;;;;6.70;1.50;;;;;;;22.05;62.99;100683.00;5219670;28;20143;-79
2023/06/19 08:25:54;;;;;;;0.50;0.50;;;;;;;21.97;63.17;100689.78;5219277;28;20044;-78
2023/06/19 08:28:45;;;;;;;0.60;0.60;;;;;;;21.91;62.70;100679.56;5234742;28;20101;-79
2023/06/19 08:31:36;;;;;;;0.20;0.20;;;;;;;22.10;62.20;100686.19;5234198;28;20037;-79
2023/06/19 08:34:27;;;;;;;0.82;0.82;;;;;;;22.23;62.25;100694.09;5225848;28;20116;-78
2023/06/19 08:37:21;;;;;;;0.80;0.80;;;;;;;22.31;62.42;100684.50;5253020;28;20044;-80
2023/06/19 08:40:12;;;;;;;0.63;0.35;;;;;;;22.26;61.48;100680.50;5239677;28;20700;-79
2023/06/19 08:43:03;;;;;;;0.20;0.20;;;;;;;22.28;59.99;100690.09;5242807;28;20439;-79
2023/06/19 08:46:15;;;;;;;0.50;0.50;;;;;;;22.33;60.26;100701.28;5253995;28;20044;-79
2023/06/19 08:49:10;;;;;;;0.32;0.32;;;;;;;22.45;60.35;100695.97;5240010;28;20770;-81
2023/06/19 08:52:01;;;;;;;0.30;0.30;;;;;;;22.48;60.68;100701.09;5240185;28;20144;-80
2023/06/19 08:54:52;;;;;;;0.70;0.70;;;;;;;22.51;60.22;100703.53;5237041;28;20678;-79
2023/06/19 08:57:43;;;;;;;0.52;0.52;;;;;;;22.49;60.71;100705.47;5231813;28;20052;-80
2023/06/19 09:00:34;;;;;;;0.98;0.88;;;;;;;22.64;59.72;100706.13;5229305;28;20025;-79
2023/06/19 09:03:25;;;;;;;3.90;0.70;;;;;;;22.60;59.92;100710.81;5239835;28;20056;-80
2023/06/19 09:06:16;;;;;;;0.52;0.52;;;;;;;22.63;61.14;100704.41;5240269;28;20128;-80
2023/06/19 09:09:12;;;;;;;0.65;0.65;;;;;;;22.75;60.90;100710.59;5230301;28;20099;-80
2023/06/19 09:12:05;;;;;;;0.50;0.50;;;;;;;22.82;59.29;100711.81;5238489;28;20127;-80
2023/06/19 09:14:56;;;;;;;;;;;;;;;22.75;60.29;100713.28;5252090;28;20039;-80
2023/06/19 09:17:46;;;;;;;0.30;0.30;;;;;;;22.88;59.35;100716.69;5228555;28;19962;-80
2023/06/19 09:20:43;;;;;;;1.25;0.90;;;;;;;22.83;58.69;100716.19;5224117;28;20028;-79
2023/06/19 09:23:34;;;;;;;0.32;0.32;;;;;;;22.79;57.93;100720.06;5228227;28;20032;-79
2023/06/19 09:26:25;;;;;;;0.43;0.43;;;;;;;22.78;58.34;100715.69;5237662;28;20443;-79
2023/06/19 09:29:17;;;;;;;0.52;0.52;;;;;;;22.97;57.47;100722.28;5232883;28;20035;-79
2023/06/19 09:32:25;;;;;;;0.60;0.60;;;;;;;22.89;55.83;100710.34;5230661;23;20044;-91
2023/06/19 09:35:17;;;;;;;0.38;0.38;;;;;;;23.02;55.76;100725.41;5202113;28;20607;-92
2023/06/19 09:38:08;;;;;;;1.20;0.88;;;;;;;22.91;55.05;100718.25;5187920;28;20037;-91
2023/06/19 09:41:04;;;;;;;0.98;0.95;;;;;;;22.91;55.63;100728.94;5174998;28;20042;-91
2023/06/19 09:43:59;;;;;;;0.50;0.50;;;;;;;22.98;55.72;100737.34;5168207;28;20040;-91
2023/06/19 09:46:52;;;;;;;0.45;0.45;;;;;;;22.97;56.61;100732.97;5181781;28;20112;-92
2023/06/19 09:49:49;;;;;;;1.45;1.10;;;;;;;23.03;56.13;100735.16;5187795;28;20024;-91
2023/06/19 09:52:41;;;;;;;0.38;0.38;;;;;;;23.01;55.78;100735.28;5193947;28;20037;-91
2023/06/19 09:55:33;;;;;;;0.50;0.50;;;;;;;23.07;55.13;100733.94;5195327;28;20033;-90
2023/06/19 09:58:25;;;;;;;0.35;0.35;;;;;;;23.16;55.28;100735.88;5190101;28;20034;-91
2023/06/19 10:01:20;;;;;;;0.57;0.57;;;;;;;23.05;54.41;100728.72;5182286;28;20069;-91
2023/06/19 10:04:12;;;;;;;7.95;0.65;;;;;;;23.08;54.44;100730.31;5185029;28;20030;-91
2023/06/19 10:07:03;;;;;;;1.37;0.47;;;;;;;23.09;53.76;100732.00;5197008;28;20059;-91
2023/06/19 10:09:57;;;;;;;0.30;0.30;;;;;;;23.32;54.55;100742.72;5194177;28;20021;-92
2023/06/19 10:12:48;;;;;;;0.80;0.80;;;;;;;23.35;54.13;100731.72;5179002;28;20049;-90
2023/06/19 10:15:44;;;;;;;0.40;0.40;;;;;;;23.42;53.62;100746.34;5186613;28;20075;-91
2023/06/19 10:18:46;;;;;;;1.05;0.82;;;;;;;23.45;53.81;100738.06;5180407;28;20025;-91
2023/06/19 10:21:48;;;;;;;0.60;0.60;;;;;;;23.45;54.48;100738.06;5166353;28;20153;-92
2023/06/19 10:24:49;;;;;;;0.77;0.77;;;;;;;23.50;53.28;100733.19;5179159;28;20033;-91
2023/06/19 10:27:40;;;;;;;2.78;0.80;;;;;;;23.42;52.15;100727.63;5175148;28;20090;-91
2023/06/19 10:30:31;;;;;;;0.40;0.40;;;;;;;23.47;51.31;100725.41;5176598;28;20498;-92
2023/06/19 10:33:24;;;;;;;1.90;1.15;;;;;;;23.60;50.33;100725.25;5171086;28;20048;-92
2023/06/19 10:36:17;;;;;;;0.30;0.30;;;;;;;23.74;50.44;100729.47;5179793;28;20123;-91
2023/06/19 10:39:09;;;;;;;0.60;0.60;;;;;;;23.79;49.30;100723.72;5173391;28;20096;-92
2023/06/19 10:41:59;;;;;;;0.40;0.40;;;;;;;23.79;50.01;100719.22;5180613;28;20033;-91
2023/06/19 10:44:50;;;;;;;0.50;0.50;;;;;;;23.88;49.44;100731.84;5175668;28;20037;-91
2023/06/19 10:47:41;;;;;;;3.20;1.35;;;;;;;23.92;49.68;100723.56;5185334;28;20048;-92
2023/06/19 10:50:38;;;;;;;0.20;0.20;;;;;;;24.03;49.67;100718.16;5173434;28;20037;-92
2023/06/19 10:53:33;;;;;;;0.47;0.47;;;;;;;24.16;48.22;100717.97;5190001;28;20342;-91
2023/06/19 10:56:24;;;;;;;0.45;0.30;;;;;;;24.02;46.34;100729.84;5175459;28;20153;-91
2023/06/19 10:59:15;;;;;;;0.88;0.85;;;;;;;24.12;48.73;100720.06;5208609;23;20052;-80
2023/06/19 11:02:06;;;;;;;2.95;0.60;;;;;;;24.27;48.99;100717.91;5174536;28;20040;-81
2023/06/19 11:04:57;;;;;;;0.50;0.40;;;;;;;24.34;48.84;100710.19;5196847;28;20087;-82
2023/06/19 11:07:59;;;;;;;0.75;0.68;;;;;;;24.44;47.89;100713.78;5182811;28;20033;-81
2023/06/19 11:10:50;;;;;;;0.40;0.40;;;;;;;24.49;46.02;100708.88;5162346;28;20036;-81
2023/06/19 11:13:42;;;;;;;0.63;0.63;;;;;;;24.46;44.31;100706.44;5199626;28;20085;-81
2023/06/19 11:16:34;;;;;;;0.23;0.23;;;;;;;24.50;46.32;100709.72;5182619;28;20088;-80
2023/06/19 11:19:30;;;;;;;0.25;0.25;;;;;;;24.71;45.93;100704.34;5205534;28;20033;-81
2023/06/19 11:22:21;;;;;;;0.35;0.35;;;;;;;24.79;45.64;100711.75;5202891;28;20429;-81
2023/06/19 11:25:12;;;;;;;0.45;0.25;;;;;;;24.78;45.84;100704.69;5180392;28;20052;-81
2023/06/19 11:28:05;;;;;;;3.55;1.30;;;;;;;24.86;45.41;100695.94;5191018;28;20041;-81
2023/06/19 11:31:03;;;;;;;1.10;0.75;;;;;;;25.03;44.93;100703.34;5169891;28;20034;-80
2023/06/19 11:33:58;;;;;;;0.70;0.70;;;;;;;25.11;43.94;100700.81;5186463;28;20033;-81
2023/06/19 11:36:50;;;;;;;0.80;0.80;;;;;;;25.03;44.33;100697.13;5172954;28;20588;-80
2023/06/19 11:39:43;;;;;;;0.55;0.47;;;;;;;25.23;45.14;100692.66;5167734;28;20029;-81
2023/06/19 11:42:44;;;;;;;0.30;0.30;;;;;;;25.33;44.35;100685.47;5181582;28;20042;-80
2023/06/19 11:45:45;;;;;;;0.35;0.35;;;;;;;25.61;43.72;100691.03;5199592;28;20041;-80
2023/06/19 11:48:37;;;;;;;0.40;0.40;;;;;;;25.56;43.09;100691.47;5185248;28;20033;-81
2023/06/19 11:51:27;;;;;;;0.50;0.50;;;;;;;25.61;42.13;100693.72;5197895;28;20030;-79
2023/06/19 11:54:20;;;;;;;0.45;0.45;;;;;;;25.76;42.70;100692.31;5191291;28;20029;-80
2023/06/19 11:57:12;;;;;;;1.23;0.82;;;;;;;25.93;42.00;100685.41;5198066;28;20771;-81
2023/06/19 12:00:08;;;;;;;0.27;0.27;;;;;;;25.88;42.23;100686.81;5171872;28;20464;-83
2023/06/19 12:02:59;;;;;;;0.70;0.70;;;;;;;26.13;42.26;100684.53;5185441;28;20118;-80
2023/06/19 12:05:50;;;;;;;4.95;0.95;;;;;;;26.13;41.57;100682.69;5181183;28;20107;-83
2023/06/19 12:08:41;;;;;;;0.40;0.40;;;;;;;26.31;41.49;100676.56;5200729;28;20021;-81
2023/06/19 12:11:32;;;;;;;0.65;0.65;;;;;;;26.42;41.36;100683.63;5175455;28;20109;-82
2023/06/19 12:14:24;;;;;;;0.80;0.80;;;;;;;26.43;39.19;100671.88;5183911;28;20085;-81
2023/06/19 12:17:15;;;;;;;0.27;0.27;;;;;;;26.46;39.76;100680.50;5169260;28;20057;-81
2023/06/19 12:20:07;;;;;;;0.45;0.45;;;;;;;26.47;39.47;100676.81;5190176;28;20034;-81
2023/06/19 12:22:58;;;;;;;2.07;1.10;;;;;;;26.47;40.26;100684.03;5189160;28;20049;-81
2023/06/19 12:25:48;;;;;;;0.65;0.55;;;;;;;26.55;41.04;100678.78;5180610;28;20036;-80
2023/06/19 12:28:39;;;;;;;0.50;0.50;;;;;;;26.33;40.27;100686.19;5197755;28;20030;-81
2023/06/19 12:31:31;;;;;;;0.60;0.52;;;;;;;26.23;40.35;100690.75;5187828;28;20029;-79
2023/06/19 12:34:24;;;;;;;1.20;0.95;;;;;;;26.30;40.49;100685.63;5186405;28;20054;-79
2023/06/19 12:37:17;;;;;;;0.35;0.35;;;;;;;26.41;40.44;100685.47;5188396;28;20088;-80
2023/06/19 12:40:10;;;;;;;;;;;;;;;26.49;40.77;100692.78;5201652;28;20613;-80
2023/06/19 12:43:02;;;;;;;0.65;0.38;;;;;;;26.51;40.97;100693.50;5172168;28;19921;-80
2023/06/19 12:45:53;;;;;;;1.17;0.63;;;;;;;26.47;39.67;100684.03;5186096;28;20037;-80
2023/06/19 12:48:44;;;;;;;0.93;0.77;;;;;;;26.66;39.88;100689.34;5176120;28;20049;-80
2023/06/19 12:51:34;;;;;;;0.70;0.55;;;;;;;26.84;40.20;100693.97;5177777;28;20052;-80
2023/06/19 12:54:25;;;;;;;0.30;0.30;;;;;;;27.04;40.71;100685.81;5177003;28;20029;-80
2023/06/19 12:57:16;;;;;;;1.50;0.90;;;;;;;27.01;40.03;100679.72;5198535;28;20029;-82
2023/06/19 13:00:12;;;;;;;1.23;0.75;;;;;;;27.16;40.86;100681.91;5192532;28;20036;-82
2023/06/19 13:03:03;;;;;;;31.25;2.90;;;;;;;27.37;39.54;100672.69;5199681;28;20033;-81
2023/06/19 13:05:54;;;;;;;0.35;0.35;;;;;;;27.58;39.90;100675.97;5204536;28;20347;-82
2023/06/19 13:08:45;;;;;;;0.52;0.52;;;;;;;27.57;39.39;100676.13;5192782;28;20029;-82
2023/06/19 13:11:36;;;;;;;1.55;1.15;;;;;;;27.72;39.24;100677.28;5175431;28;20045;-83
2023/06/19 13:14:26;;;;;;;0.43;0.40;;;;;;;27.80;39.28;100663.88;5175984;28;20033;-82
2023/06/19 13:17:19;;;;;;;0.20;0.20;;;;;;;27.73;38.24;100659.25;5201593;28;20049;-82
2023/06/19 13:20:10;;;;;;;0.52;0.52;;;;;;;28.02;39.01;100655.44;5171930;28;20025;-83
2023/06/19 13:23:00;;;;;;;1.85;0.68;;;;;;;28.22;38.04;100651.53;5203120;28;20033;-82